createdAt,value
2018-07-04T00:00:21.906Z,2.10
2018-07-04T00:03:06.964Z,2.10
2018-07-04T00:05:52.097Z,2.27
2018-07-04T00:08:37.265Z,2.20
2018-07-04T00:11:22.506Z,2.30
2018-07-04T00:14:07.555Z,2.30
2018-07-04T00:16:52.664Z,2.07
2018-07-04T00:19:37.737Z,2.03
2018-07-04T00:22:22.912Z,2.10
2018-07-04T00:25:08.037Z,1.93
2018-07-04T00:27:52.972Z,2.00
2018-07-04T00:30:38.018Z,2.20
2018-07-04T00:33:23.241Z,2.37
2018-07-04T00:36:08.461Z,2.00
2018-07-04T00:38:53.606Z,1.70
2018-07-04T00:41:38.762Z,2.30
2018-07-04T00:44:23.910Z,2.20
2018-07-04T00:47:09.412Z,2.17
2018-07-04T00:49:54.604Z,2.20
2018-07-04T00:52:39.797Z,2.20
2018-07-04T00:55:25.069Z,2.40
2018-07-04T00:58:10.169Z,2.13
2018-07-04T01:00:55.225Z,1.73
2018-07-04T01:03:40.393Z,2.10
2018-07-04T01:06:25.758Z,2.33
2018-07-04T01:09:10.902Z,2.30
2018-07-04T01:11:56.116Z,2.43
2018-07-04T01:14:41.317Z,2.30
2018-07-04T01:17:26.468Z,2.00
2018-07-04T01:20:11.694Z,1.90
2018-07-04T01:22:56.969Z,2.13
2018-07-04T01:25:42.124Z,2.13
2018-07-04T01:28:33.215Z,2.17
2018-07-04T01:31:18.427Z,2.10
2018-07-04T01:34:03.526Z,2.00
2018-07-04T01:36:48.909Z,2.57
2018-07-04T01:39:34.101Z,1.83
2018-07-04T01:42:19.206Z,1.83
2018-07-04T01:45:04.277Z,1.90
2018-07-04T01:47:49.261Z,1.93
2018-07-04T01:50:34.324Z,2.00
2018-07-04T01:53:19.427Z,2.17
2018-07-04T01:56:04.609Z,2.20
2018-07-04T01:58:49.921Z,2.20
2018-07-04T02:01:34.941Z,2.20
2018-07-04T02:04:20.006Z,2.00
2018-07-04T02:07:05.121Z,2.20
2018-07-04T02:09:50.152Z,2.13
2018-07-04T02:12:35.331Z,2.10
2018-07-04T02:15:20.737Z,1.83
2018-07-04T02:18:05.898Z,2.33
2018-07-04T02:20:50.970Z,2.00
2018-07-04T02:23:35.969Z,1.97
2018-07-04T02:26:21.140Z,2.50
2018-07-04T02:29:06.204Z,2.00
2018-07-04T02:31:51.421Z,1.70
2018-07-04T02:34:36.705Z,1.80
2018-07-04T02:37:21.823Z,1.90
2018-07-04T02:40:06.989Z,1.97
2018-07-04T02:42:52.170Z,2.30
2018-07-04T02:45:37.595Z,2.30
2018-07-04T02:48:22.768Z,2.12
2018-07-04T02:51:07.882Z,2.20
2018-07-04T02:53:53.148Z,1.90
2018-07-04T02:56:38.305Z,1.98
2018-07-04T02:59:23.433Z,2.20
2018-07-04T03:02:09.414Z,2.00
2018-07-04T03:04:54.509Z,1.97
2018-07-04T03:07:33.860Z,1.70
2018-07-04T03:10:19.144Z,2.60
2018-07-04T03:13:04.300Z,2.03
2018-07-04T03:15:49.589Z,2.00
2018-07-04T03:18:34.816Z,2.25
2018-07-04T03:21:20.049Z,2.20
2018-07-04T03:24:05.409Z,2.30
2018-07-04T03:26:50.682Z,2.37
2018-07-04T03:29:35.733Z,2.50
2018-07-04T03:32:20.665Z,2.23
2018-07-04T03:35:06.010Z,2.00
2018-07-04T03:37:51.170Z,1.80
2018-07-04T03:40:36.245Z,2.20
2018-07-04T03:43:21.513Z,2.00
2018-07-04T03:46:06.757Z,1.80
2018-07-04T03:48:51.897Z,1.80
2018-07-04T03:51:37.080Z,2.07
2018-07-04T03:54:22.369Z,2.00
2018-07-04T03:57:08.751Z,2.03
2018-07-04T03:59:53.881Z,2.00
2018-07-04T04:02:39.128Z,1.97
2018-07-04T04:05:24.404Z,2.40
2018-07-04T04:08:09.558Z,2.13
2018-07-04T04:10:54.732Z,2.40
2018-07-04T04:13:39.753Z,2.07
2018-07-04T04:16:24.953Z,2.20
2018-07-04T04:19:10.109Z,2.20
2018-07-04T04:21:55.175Z,2.10
2018-07-04T04:24:40.308Z,1.90
2018-07-04T04:27:25.525Z,1.93
2018-07-04T04:30:10.579Z,1.57
2018-07-04T04:32:55.789Z,2.10
2018-07-04T04:35:41.000Z,1.80
2018-07-04T04:38:26.189Z,1.83
2018-07-04T04:41:11.213Z,2.17
2018-07-04T04:43:56.402Z,1.83
2018-07-04T04:46:41.537Z,2.20
2018-07-04T04:49:26.764Z,1.97
2018-07-04T04:52:11.991Z,1.97
2018-07-04T04:54:57.179Z,2.17
2018-07-04T04:57:36.489Z,2.27
2018-07-04T05:00:21.861Z,1.90
2018-07-04T05:03:06.982Z,1.83
2018-07-04T05:05:52.328Z,2.27
2018-07-04T05:08:37.723Z,2.50
2018-07-04T05:11:22.968Z,1.70
2018-07-04T05:14:08.177Z,1.90
2018-07-04T05:16:53.277Z,1.70
2018-07-04T05:19:38.329Z,1.90
2018-07-04T05:22:23.400Z,1.93
2018-07-04T05:25:08.482Z,2.17
2018-07-04T05:27:53.516Z,2.00
2018-07-04T05:30:38.800Z,2.10
2018-07-04T05:33:24.044Z,2.00
2018-07-04T05:36:09.257Z,2.40
2018-07-04T05:38:54.434Z,2.20
2018-07-04T05:41:39.650Z,2.00
2018-07-04T05:44:24.837Z,2.10
2018-07-04T05:47:09.949Z,2.10
2018-07-04T05:49:54.941Z,2.20
2018-07-04T05:52:40.014Z,2.13
2018-07-04T05:55:25.298Z,1.97
2018-07-04T05:58:10.117Z,2.47
2018-07-04T06:00:55.325Z,1.97
2018-07-04T06:03:40.500Z,1.80
2018-07-04T06:06:25.854Z,1.87
2018-07-04T06:09:11.188Z,1.80
2018-07-04T06:11:56.488Z,2.17
2018-07-04T06:14:41.641Z,1.80
2018-07-04T06:17:26.938Z,1.83
2018-07-04T06:20:12.097Z,2.20
2018-07-04T06:22:57.345Z,1.90
2018-07-04T06:25:42.675Z,1.73
2018-07-04T06:28:27.836Z,1.90
2018-07-04T06:31:13.262Z,2.17
2018-07-04T06:33:58.467Z,1.90
2018-07-04T06:36:43.684Z,2.07
2018-07-04T06:39:10.081Z,2.10
2018-07-04T06:41:36.441Z,1.80
2018-07-04T06:44:02.874Z,2.00
2018-07-04T06:46:29.276Z,1.93
2018-07-04T06:48:55.694Z,2.20
2018-07-04T06:51:22.092Z,2.17
2018-07-04T06:53:48.433Z,2.10
2018-07-04T06:56:14.804Z,1.90
2018-07-04T06:58:41.226Z,2.03
2018-07-04T07:01:07.657Z,2.33
2018-07-04T07:03:53.081Z,2.20
2018-07-04T07:06:38.305Z,2.30
2018-07-04T07:09:23.620Z,2.00
2018-07-04T07:12:08.705Z,2.00
2018-07-04T07:14:53.868Z,2.20
2018-07-04T07:17:39.081Z,2.20
2018-07-04T07:20:24.179Z,2.27
2018-07-04T07:23:09.289Z,2.37
2018-07-04T07:25:54.544Z,2.60
2018-07-04T07:28:40.046Z,2.47
2018-07-04T07:31:25.271Z,2.73
2018-07-04T07:34:10.776Z,2.47
2018-07-04T07:36:55.837Z,2.97
2018-07-04T07:39:41.052Z,2.63
2018-07-04T07:42:26.209Z,3.00
2018-07-04T07:45:11.547Z,3.43
2018-07-04T07:47:56.905Z,3.60
2018-07-04T07:50:42.006Z,3.10
2018-07-04T07:53:27.220Z,3.60
2018-07-04T07:56:12.660Z,3.70
2018-07-04T07:58:57.860Z,3.33
2018-07-04T08:01:43.113Z,3.60
2018-07-04T08:04:28.346Z,3.60
2018-07-04T08:07:13.764Z,4.40
2018-07-04T08:09:58.905Z,3.70
2018-07-04T08:12:44.122Z,3.60
2018-07-04T08:15:29.595Z,3.77
2018-07-04T08:18:14.664Z,3.43
2018-07-04T08:20:59.869Z,3.70
2018-07-04T08:23:45.300Z,4.50
2018-07-04T08:26:30.556Z,3.60
2018-07-04T08:29:15.809Z,3.47
2018-07-04T08:31:55.046Z,3.77
2018-07-04T08:34:40.201Z,3.93
2018-07-04T08:37:25.477Z,3.83
2018-07-04T08:40:10.845Z,3.83
2018-07-04T08:42:56.185Z,3.50
2018-07-04T08:45:41.517Z,4.00
2018-07-04T08:48:26.834Z,3.20
2018-07-04T08:51:12.262Z,4.10
2018-07-04T08:53:51.620Z,3.70
2018-07-04T08:56:36.717Z,3.80
2018-07-04T08:59:22.016Z,3.63
2018-07-04T09:02:07.160Z,3.33
2018-07-04T09:04:46.397Z,3.30
2018-07-04T09:07:31.556Z,3.20
2018-07-04T09:10:16.532Z,2.90
2018-07-04T09:13:01.921Z,2.83
2018-07-04T09:15:47.100Z,3.43
2018-07-04T09:18:32.303Z,3.33
2018-07-04T09:21:17.566Z,2.83
2018-07-04T09:23:56.845Z,2.80
2018-07-04T09:26:42.077Z,3.30
2018-07-04T09:29:27.416Z,3.10
2018-07-04T09:32:12.625Z,3.00
2018-07-04T09:34:58.068Z,3.10
2018-07-04T09:37:43.280Z,2.83
2018-07-04T09:40:28.654Z,3.00
2018-07-04T09:43:14.022Z,2.57
2018-07-04T09:45:59.196Z,3.10
2018-07-04T09:48:44.477Z,2.60
2018-07-04T09:51:29.672Z,3.00
2018-07-04T09:54:14.873Z,2.47
2018-07-04T09:57:00.074Z,4.80
2018-07-04T09:59:45.369Z,2.50
2018-07-04T10:02:30.457Z,2.93
2018-07-04T10:05:15.620Z,2.73
2018-07-04T10:08:00.924Z,3.03
2018-07-04T10:10:46.282Z,2.73
2018-07-04T10:13:31.267Z,2.60
2018-07-04T10:16:16.404Z,2.53
2018-07-04T10:19:01.513Z,2.60
2018-07-04T10:21:46.711Z,2.90
2018-07-04T10:24:31.845Z,2.90
2018-07-04T10:27:17.139Z,2.30
2018-07-04T10:30:02.413Z,2.60
2018-07-04T10:32:47.557Z,2.33
2018-07-04T10:35:32.792Z,2.70
2018-07-04T10:38:18.229Z,2.60
2018-07-04T10:41:03.453Z,1.93
2018-07-04T10:43:48.620Z,2.63
2018-07-04T10:46:33.829Z,2.00
2018-07-04T10:49:18.992Z,1.83
2018-07-04T10:52:04.134Z,1.80
2018-07-04T10:54:49.360Z,2.08
2018-07-04T10:57:34.585Z,1.90
2018-07-04T11:00:19.621Z,1.87
2018-07-04T11:03:04.793Z,1.98
2018-07-04T11:05:49.996Z,1.70
2018-07-04T11:08:35.629Z,1.98
2018-07-04T11:11:20.768Z,1.60
2018-07-04T11:14:05.997Z,1.70
2018-07-04T11:16:51.285Z,1.85
2018-07-04T11:19:36.408Z,1.75
2018-07-04T11:22:21.419Z,2.00
2018-07-04T11:25:06.496Z,2.27
2018-07-04T11:27:51.589Z,2.20
2018-07-04T11:30:36.668Z,2.12
2018-07-04T11:33:21.777Z,1.77
2018-07-04T11:36:01.020Z,1.65
2018-07-04T11:38:40.243Z,1.55
2018-07-04T11:41:25.716Z,1.45
2018-07-04T11:44:05.229Z,1.37
2018-07-04T11:46:31.625Z,2.00
2018-07-04T11:48:59.612Z,1.55
2018-07-04T11:51:26.009Z,1.80
2018-07-04T11:53:52.393Z,1.77
2018-07-04T11:56:18.800Z,2.00
2018-07-04T11:58:45.158Z,1.77
2018-07-04T12:01:11.572Z,1.35
2018-07-04T12:03:56.652Z,1.30
2018-07-04T12:06:41.725Z,1.80
2018-07-04T12:09:08.162Z,1.85
2018-07-04T12:11:34.585Z,1.98
2018-07-04T12:14:01.030Z,1.87
2018-07-04T12:16:27.456Z,1.67
2018-07-04T12:18:53.848Z,1.82
2018-07-04T12:21:20.257Z,1.82
2018-07-04T12:23:46.659Z,2.27
2018-07-04T12:26:13.121Z,2.05
2018-07-04T12:28:39.521Z,1.90
2018-07-04T12:31:05.909Z,1.98
2018-07-04T12:33:32.333Z,2.33
2018-07-04T12:35:58.733Z,2.00
2018-07-04T12:38:25.092Z,1.85
2018-07-04T12:40:51.981Z,1.60
2018-07-04T12:43:18.415Z,2.08
2018-07-04T12:45:44.749Z,2.02
2018-07-04T12:48:11.156Z,1.92
2018-07-04T12:50:37.577Z,2.10
2018-07-04T12:53:03.969Z,2.00
2018-07-04T12:55:49.118Z,1.95
2018-07-04T12:58:34.307Z,1.85
2018-07-04T13:01:19.526Z,2.20
2018-07-04T13:04:04.545Z,2.30
2018-07-04T13:06:49.721Z,2.02
2018-07-04T13:09:34.821Z,2.15
2018-07-04T13:12:19.942Z,1.90
2018-07-04T13:15:05.229Z,2.33
2018-07-04T13:17:50.537Z,2.10
2018-07-04T13:20:33.856Z,2.20
2018-07-04T13:23:19.771Z,2.33
2018-07-04T13:26:05.392Z,1.92
2018-07-04T13:28:44.891Z,2.33
2018-07-04T13:31:31.115Z,2.92
2018-07-04T13:34:16.368Z,2.30
2018-07-04T13:37:03.536Z,2.40
2018-07-04T13:39:50.108Z,2.08
2018-07-04T13:42:35.999Z,2.25
2018-07-04T13:45:21.253Z,2.45
2018-07-04T13:48:06.462Z,2.50
2018-07-04T13:50:51.565Z,2.25
2018-07-04T13:53:36.673Z,2.40
2018-07-04T13:56:21.680Z,2.07
2018-07-04T13:59:06.801Z,2.10
2018-07-04T14:01:52.238Z,3.03
2018-07-04T14:04:37.528Z,3.20
2018-07-04T14:07:22.790Z,3.03
2018-07-04T14:10:07.972Z,2.87
2018-07-04T14:12:53.135Z,2.47
2018-07-04T14:15:38.489Z,2.70
2018-07-04T14:18:23.617Z,2.73
2018-07-04T14:21:08.791Z,2.60
2018-07-04T14:23:54.017Z,3.00
2018-07-04T14:26:39.277Z,2.80
2018-07-04T14:29:24.431Z,2.40
2018-07-04T14:32:09.609Z,2.70
2018-07-04T14:34:54.892Z,3.30
2018-07-04T14:37:40.341Z,2.93
2018-07-04T14:40:25.491Z,2.80
2018-07-04T14:43:10.668Z,2.70
2018-07-04T14:45:55.937Z,2.90
2018-07-04T14:48:41.293Z,2.83
2018-07-04T14:51:26.604Z,2.77
2018-07-04T14:54:11.757Z,2.67
2018-07-04T14:56:57.101Z,2.90
2018-07-04T14:59:42.228Z,2.67
2018-07-04T15:02:27.469Z,2.47
2018-07-04T15:05:12.761Z,2.67
2018-07-04T15:07:58.289Z,2.80
2018-07-04T15:10:44.225Z,2.90
2018-07-04T15:13:29.310Z,2.80
2018-07-04T15:16:15.509Z,3.33
2018-07-04T15:19:00.701Z,2.60
2018-07-04T15:21:45.961Z,3.23
2018-07-04T15:24:31.253Z,3.90
2018-07-04T15:27:17.040Z,3.53
2018-07-04T15:30:02.122Z,4.00
2018-07-04T15:32:47.318Z,2.80
2018-07-04T15:35:32.481Z,2.30
2018-07-04T15:38:17.892Z,2.33
2018-07-04T15:41:03.169Z,4.00
2018-07-04T15:43:48.329Z,3.17
2018-07-04T15:46:33.408Z,2.53
2018-07-04T15:49:18.743Z,2.97
2018-07-04T15:52:03.944Z,3.07
2018-07-04T15:54:49.210Z,2.80
2018-07-04T15:57:40.832Z,3.30
2018-07-04T16:00:26.075Z,4.03
2018-07-04T16:03:11.586Z,3.57
2018-07-04T16:05:56.623Z,3.40
2018-07-04T16:08:42.504Z,4.73
2018-07-04T16:11:27.661Z,4.20
2018-07-04T16:14:13.071Z,5.77
2018-07-04T16:16:58.450Z,3.37
2018-07-04T16:19:43.653Z,2.97
2018-07-04T16:22:28.956Z,3.50
2018-07-04T16:25:14.452Z,3.90
2018-07-04T16:27:59.582Z,3.57
2018-07-04T16:30:44.598Z,3.03
2018-07-04T16:33:29.970Z,2.77
2018-07-04T16:36:15.341Z,3.57
2018-07-04T16:39:00.590Z,4.50
2018-07-04T16:41:45.861Z,3.63
2018-07-04T16:44:31.241Z,4.20
2018-07-04T16:47:16.529Z,4.23
2018-07-04T16:50:01.791Z,3.20
2018-07-04T16:52:46.999Z,2.70
2018-07-04T16:55:32.090Z,3.13
2018-07-04T16:58:17.177Z,2.90
2018-07-04T17:01:02.408Z,3.50
2018-07-04T17:03:47.626Z,3.47
2018-07-04T17:06:32.818Z,4.10
2018-07-04T17:09:18.037Z,3.37
2018-07-04T17:12:03.402Z,3.07
2018-07-04T17:14:48.657Z,2.90
2018-07-04T17:17:33.782Z,3.47
2018-07-04T17:20:18.976Z,3.12
2018-07-04T17:23:04.312Z,2.90
2018-07-04T17:25:49.668Z,2.57
2018-07-04T17:28:38.736Z,3.20
2018-07-04T17:31:23.953Z,2.60
2018-07-04T17:34:09.249Z,2.60
2018-07-04T17:36:54.545Z,2.83
2018-07-04T17:39:39.684Z,2.90
2018-07-04T17:42:24.799Z,2.80
2018-07-04T17:45:10.333Z,3.17
2018-07-04T17:47:55.505Z,3.00
2018-07-04T17:50:43.105Z,2.90
2018-07-04T17:53:28.370Z,3.20
2018-07-04T17:56:13.563Z,3.07
2018-07-04T17:58:58.725Z,3.00
2018-07-04T18:01:44.307Z,2.90
2018-07-04T18:04:29.432Z,2.80
2018-07-04T18:07:14.553Z,3.30
2018-07-04T18:09:59.833Z,2.67
2018-07-04T18:12:39.024Z,3.10
2018-07-04T18:15:24.209Z,3.07
2018-07-04T18:18:09.407Z,3.33
2018-07-04T18:20:54.612Z,3.10
2018-07-04T18:23:39.668Z,2.97
2018-07-04T18:26:24.830Z,3.27
2018-07-04T18:29:10.015Z,3.40
2018-07-04T18:31:55.114Z,3.77
2018-07-04T18:34:40.339Z,3.47
2018-07-04T18:37:26.170Z,2.90
2018-07-04T18:40:11.477Z,3.90
2018-07-04T18:42:56.860Z,3.03
2018-07-04T18:45:42.145Z,2.63
2018-07-04T18:48:27.452Z,3.10
2018-07-04T18:51:12.601Z,3.83
2018-07-04T18:53:57.894Z,3.30
2018-07-04T18:56:43.050Z,3.10
2018-07-04T18:59:28.549Z,3.23
2018-07-04T19:02:13.652Z,3.23
2018-07-04T19:04:59.092Z,3.40
2018-07-04T19:07:44.376Z,3.83
2018-07-04T19:10:29.565Z,3.57
2018-07-04T19:13:14.901Z,3.50
2018-07-04T19:16:00.101Z,3.63
2018-07-04T19:18:45.296Z,3.53
2018-07-04T19:21:30.453Z,3.93
2018-07-04T19:24:15.769Z,4.30
2018-07-04T19:27:00.936Z,3.60
2018-07-04T19:29:46.283Z,3.90
2018-07-04T19:32:31.353Z,3.50
2018-07-04T19:35:10.708Z,3.67
2018-07-04T19:37:55.981Z,3.93
2018-07-04T19:40:41.361Z,3.50
2018-07-04T19:43:26.628Z,3.73
2018-07-04T19:46:12.037Z,3.43
2018-07-04T19:48:57.548Z,3.67
2018-07-04T19:51:42.736Z,3.83
2018-07-04T19:54:27.805Z,4.07
2018-07-04T19:57:12.981Z,3.37
2018-07-04T19:59:58.100Z,4.10
2018-07-04T20:02:37.603Z,3.20
2018-07-04T20:05:22.644Z,3.30
2018-07-04T20:08:07.907Z,3.57
2018-07-04T20:10:53.292Z,3.60
2018-07-04T20:13:38.600Z,3.20
2018-07-04T20:16:23.707Z,3.67
2018-07-04T20:19:09.111Z,3.33
2018-07-04T20:21:54.332Z,3.10
2018-07-04T20:24:39.520Z,3.27
2018-07-04T20:27:24.638Z,4.03
2018-07-04T20:30:09.729Z,3.00
2018-07-04T20:32:54.875Z,3.77
2018-07-04T20:35:39.959Z,3.00
2018-07-04T20:38:25.269Z,3.67
2018-07-04T20:41:10.432Z,3.17
2018-07-04T20:43:55.483Z,3.40
2018-07-04T20:46:40.721Z,3.27
2018-07-04T20:49:20.009Z,3.33
2018-07-04T20:52:05.251Z,4.07
2018-07-04T20:54:50.405Z,3.90
2018-07-04T20:57:35.796Z,3.60
2018-07-04T21:00:21.072Z,4.00
2018-07-04T21:03:06.229Z,4.30
2018-07-04T21:05:51.419Z,3.90
2018-07-04T21:08:36.674Z,3.90
2018-07-04T21:11:21.876Z,4.00
2018-07-04T21:14:07.030Z,3.77
2018-07-04T21:16:52.153Z,3.53
2018-07-04T21:19:37.201Z,3.60
2018-07-04T21:22:22.332Z,3.50
2018-07-04T21:25:01.576Z,3.23
2018-07-04T21:27:46.733Z,4.07
2018-07-04T21:30:26.101Z,3.10
2018-07-04T21:33:11.238Z,3.10
2018-07-04T21:35:50.647Z,3.07
2018-07-04T21:38:36.066Z,3.60
2018-07-04T21:41:21.410Z,3.50
2018-07-04T21:44:06.697Z,3.73
2018-07-04T21:46:51.922Z,3.13
2018-07-04T21:49:36.954Z,3.40
2018-07-04T21:52:21.957Z,3.37
2018-07-04T21:55:07.079Z,3.03
2018-07-04T21:57:52.108Z,3.97
2018-07-04T22:00:37.261Z,3.23
2018-07-04T22:03:22.534Z,4.10
2018-07-04T22:06:01.809Z,3.63
2018-07-04T22:08:46.865Z,3.47
2018-07-04T22:11:32.101Z,3.70
2018-07-04T22:14:11.520Z,3.70
2018-07-04T22:16:56.610Z,3.60
2018-07-04T22:19:41.741Z,3.70
2018-07-04T22:22:26.923Z,4.20
2018-07-04T22:25:06.212Z,3.47
2018-07-04T22:27:51.336Z,3.00
2018-07-04T22:30:36.637Z,3.73
2018-07-04T22:33:22.009Z,3.73
2018-07-04T22:36:07.288Z,3.37
2018-07-04T22:38:52.506Z,3.40
2018-07-04T22:41:37.589Z,3.70
2018-07-04T22:44:23.028Z,3.70
2018-07-04T22:47:08.596Z,3.40
2018-07-04T22:49:53.918Z,3.70
2018-07-04T22:52:39.193Z,3.90
2018-07-04T22:55:24.317Z,4.23
2018-07-04T22:58:09.460Z,4.43
2018-07-04T23:00:54.581Z,3.47
2018-07-04T23:03:39.917Z,4.30
2018-07-04T23:06:24.977Z,4.20
2018-07-04T23:09:10.137Z,4.17
2018-07-04T23:11:55.158Z,4.40
2018-07-04T23:14:40.393Z,4.57
2018-07-04T23:17:25.636Z,4.60
2018-07-04T23:20:10.731Z,4.80
2018-07-04T23:22:49.879Z,4.67
2018-07-04T23:25:35.362Z,4.63
2018-07-04T23:28:20.697Z,3.97
2018-07-04T23:31:05.745Z,3.53
2018-07-04T23:33:50.796Z,3.40
2018-07-04T23:36:36.033Z,5.00
2018-07-04T23:39:21.444Z,4.73
2018-07-04T23:42:06.674Z,3.40
2018-07-04T23:44:51.985Z,4.40
2018-07-04T23:47:37.137Z,3.83
2018-07-04T23:50:22.241Z,4.23
2018-07-04T23:53:07.421Z,4.53
2018-07-04T23:55:52.772Z,5.00
2018-07-04T23:58:37.804Z,5.03
